Time;durP1;ratioP1;P1;durP2;ratioP2;P2;SDS_P1;SDS_P2;PMS_P1;PMS_P2;Temp;Humidity;BMP_temperature;BMP_pressure;BME280_temperature;BME280_humidity;BME280_pressure;Samples;Min_cycle;Max_cycle;Signal;HPM_P1;HPM_P2
2021/07/13 00:00:18;;;;;;;12.15;9.23;;;;;;;22.94;55.42;100874.31;4945992;28;115320;-69
2021/07/13 00:02:45;;;;;;;12.63;9.32;;;;;;;22.94;55.38;100881.53;4957629;28;123376;-69
2021/07/13 00:05:17;;;;;;;11.02;8.50;;;;;;;22.90;55.53;100889.09;4944134;28;122725;-69
2021/07/13 00:07:46;;;;;;;11.77;8.93;;;;;;;22.90;55.45;100888.25;4942436;28;114234;-69
2021/07/13 00:10:16;;;;;;;12.38;8.95;;;;;;;22.89;55.58;100886.56;4942611;28;113986;-69
2021/07/13 00:12:44;;;;;;;13.80;9.13;;;;;;;22.89;55.70;100897.38;4934772;28;124098;-69
2021/07/13 00:15:33;;;;;;;11.90;9.00;;;;;;;22.89;55.71;100891.97;4944964;28;124023;-69
2021/07/13 00:18:00;;;;;;;13.13;9.80;;;;;;;22.90;55.66;100893.66;4934007;28;114279;-69
2021/07/13 00:20:29;;;;;;;13.55;9.98;;;;;;;22.90;55.90;100899.06;4934379;28;114150;-69
2021/07/13 00:22:57;;;;;;;13.65;10.18;;;;;;;22.91;55.79;100896.22;4932840;28;124087;-69
2021/07/13 00:25:26;;;;;;;14.93;10.98;;;;;;;22.91;55.92;100889.97;4930484;28;123681;-69
2021/07/13 00:27:54;;;;;;;15.38;10.15;;;;;;;22.92;56.06;100899.75;4930472;28;113189;-69
2021/07/13 00:30:22;;;;;;;13.55;9.82;;;;;;;22.92;55.82;100897.06;4930279;28;113796;-69
2021/07/13 00:32:50;;;;;;;14.05;9.60;;;;;;;22.91;55.96;100900.78;4931242;28;124286;-69
2021/07/13 00:35:18;;;;;;;13.20;10.18;;;;;;;22.91;56.03;100906.19;4941279;28;124044;-69
2021/07/13 00:37:46;;;;;;;12.65;9.70;;;;;;;22.91;56.06;100906.19;4933403;28;115123;-70
2021/07/13 00:40:18;;;;;;;14.68;10.45;;;;;;;22.92;56.11;100913.25;4939710;28;114185;-69
2021/07/13 00:42:47;;;;;;;12.10;9.13;;;;;;;22.93;56.08;100904.16;4933588;28;124899;-69
2021/07/13 00:45:15;;;;;;;13.57;10.27;;;;;;;22.93;56.13;100904.16;4940516;28;124121;-69
2021/07/13 00:47:47;;;;;;;13.57;9.98;;;;;;;22.95;56.19;100910.28;4939820;28;114380;-69
2021/07/13 00:50:16;;;;;;;15.10;10.70;;;;;;;22.95;55.97;100907.56;4934258;28;115105;-70
2021/07/13 00:52:44;;;;;;;14.63;9.65;;;;;;;22.95;56.16;100907.56;4936780;28;123793;-69
2021/07/13 00:55:12;;;;;;;12.60;10.15;;;;;;;22.96;56.12;100908.41;4935441;28;123650;-69
2021/07/13 00:57:40;;;;;;;13.82;10.63;;;;;;;22.96;56.26;100903.00;4935794;28;114347;-70
2021/07/13 01:00:11;;;;;;;13.75;10.23;;;;;;;22.94;56.36;100906.72;4934930;28;113819;-69
2021/07/13 01:02:39;;;;;;;12.98;10.20;;;;;;;22.93;56.34;100898.78;4941392;28;124149;-69
2021/07/13 01:05:12;;;;;;;13.90;10.50;;;;;;;22.92;56.33;100902.47;4930943;28;124270;-69
2021/07/13 01:07:42;;;;;;;13.48;11.15;;;;;;;22.92;56.54;100897.06;4935018;28;114767;-70
2021/07/13 01:10:33;;;;;;;14.90;11.25;;;;;;;22.89;56.70;100895.50;4943098;28;114066;-69
2021/07/13 01:13:07;;;;;;;15.52;12.07;;;;;;;22.89;56.77;100883.88;4936627;28;123831;-69
2021/07/13 01:15:41;;;;;;;14.27;10.65;;;;;;;22.89;56.80;100887.41;4927376;28;123922;-69
2021/07/13 01:18:32;;;;;;;15.02;11.07;;;;;;;22.89;56.63;100875.75;4930181;28;114618;-70
2021/07/13 01:21:30;;;;;;;14.80;11.02;;;;;;;22.91;56.63;100868.34;4932732;28;114004;-69
2021/07/13 01:24:45;;;;;;;14.43;11.13;;;;;;;22.91;56.40;100868.34;4929971;28;124561;-70
2021/07/13 01:27:37;;;;;;;15.50;11.00;;;;;;;22.90;56.47;100861.25;4922534;28;124673;-69
2021/07/13 01:30:09;;;;;;;14.68;11.23;;;;;;;22.89;56.67;100857.69;4934662;28;114311;-69
2021/07/13 01:32:38;;;;;;;15.10;11.02;;;;;;;22.90;56.71;100855.84;4934476;28;114334;-70
2021/07/13 01:35:10;;;;;;;15.60;11.32;;;;;;;22.90;56.79;100853.13;4936568;28;124604;-69
2021/07/13 01:37:39;;;;;;;14.43;10.98;;;;;;;22.89;56.77;100860.41;4940009;28;123743;-69
2021/07/13 01:40:09;;;;;;;16.35;11.25;;;;;;;22.89;56.85;100864.97;4927241;28;115593;-71
2021/07/13 01:42:39;;;;;;;18.30;12.40;;;;;;;22.89;56.88;100867.66;4931052;28;115728;-71
2021/07/13 01:45:07;;;;;;;19.20;12.48;;;;;;;22.87;56.91;100856.16;4921860;28;123117;-70
2021/07/13 01:47:39;;;;;;;17.02;11.82;;;;;;;22.87;56.86;100861.56;4933979;28;123687;-70
2021/07/13 01:50:09;;;;;;;16.10;12.63;;;;;;;22.88;56.85;100868.66;4912474;28;114391;-70
2021/07/13 01:52:38;;;;;;;17.98;12.73;;;;;;;22.88;57.08;100868.66;4945258;28;113894;-70
2021/07/13 01:55:07;;;;;;;18.83;13.45;;;;;;;22.87;57.15;100866.97;4932206;28;124272;-70
2021/07/13 01:57:35;;;;;;;19.05;13.77;;;;;;;22.88;57.37;100863.25;4946912;28;124049;-70
2021/07/13 02:00:07;;;;;;;17.48;13.57;;;;;;;22.86;57.27;100865.25;4938349;28;113479;-70
2021/07/13 02:02:40;;;;;;;18.77;13.50;;;;;;;22.89;57.19;100870.38;4939835;28;114548;-70
2021/07/13 02:05:09;;;;;;;18.17;13.75;;;;;;;22.89;57.15;100865.81;4937136;28;124187;-70
2021/07/13 02:07:39;;;;;;;18.58;14.02;;;;;;;22.89;57.17;100859.56;4947835;28;123762;-69
2021/07/13 02:10:07;;;;;;;19.25;13.88;;;;;;;22.90;57.18;100869.34;4922203;28;113139;-70
2021/07/13 02:12:34;;;;;;;19.05;13.57;;;;;;;22.90;57.11;100872.03;4935205;28;114002;-69
2021/07/13 02:15:03;;;;;;;16.70;12.20;;;;;;;22.89;57.07;100864.97;4931350;28;124184;-70
2021/07/13 02:17:31;;;;;;;19.35;13.27;;;;;;;22.89;57.11;100864.97;4940460;28;124172;-69
2021/07/13 02:19:59;;;;;;;19.02;14.07;;;;;;;22.87;57.17;100861.56;4936583;28;114152;-70
2021/07/13 02:22:27;;;;;;;18.80;13.07;;;;;;;22.86;57.26;100862.53;4940814;28;113915;-70
2021/07/13 02:24:55;;;;;;;17.73;12.50;;;;;;;22.84;57.17;100867.25;4939227;28;124158;-70
2021/07/13 02:27:24;;;;;;;18.35;13.55;;;;;;;22.82;57.25;100858.44;4930533;28;122937;-70
2021/07/13 02:29:56;;;;;;;18.80;13.35;;;;;;;22.81;57.42;100862.13;4938684;28;115736;-69
2021/07/13 02:32:36;;;;;;;15.45;12.18;;;;;;;22.80;57.29;100860.44;4938012;28;115327;-70
2021/07/13 02:35:06;;;;;;;17.25;12.68;;;;;;;22.80;57.56;100865.84;4936791;28;124409;-70
2021/07/13 02:37:36;;;;;;;17.45;12.27;;;;;;;22.76;57.67;100859.06;4934750;28;124267;-70
2021/07/13 02:40:08;;;;;;;17.42;12.82;;;;;;;22.74;57.68;100862.72;4942180;28;114264;-70
2021/07/13 02:42:36;;;;;;;19.90;12.73;;;;;;;22.73;57.61;100861.06;4942265;28;114172;-70
2021/07/13 02:45:05;;;;;;;15.30;11.13;;;;;;;22.72;57.65;100864.72;4936282;28;124757;-70
2021/07/13 02:47:34;;;;;;;16.23;11.75;;;;;;;22.72;57.73;100859.34;4940886;28;124378;-70
2021/07/13 02:50:03;;;;;;;17.65;12.77;;;;;;;22.73;57.85;100855.66;4943621;28;114675;-70
2021/07/13 02:52:32;;;;;;;17.67;12.23;;;;;;;22.73;57.78;100855.66;4945861;28;113965;-70
2021/07/13 02:55:14;;;;;;;16.65;12.45;;;;;;;22.70;57.89;100850.53;4944372;28;124531;-70
2021/07/13 02:57:43;;;;;;;16.38;12.63;;;;;;;22.69;57.95;100848.81;4934921;28;124096;-70
2021/07/13 03:00:13;;;;;;;17.58;12.30;;;;;;;22.68;57.96;100852.53;4948285;28;114421;-70
2021/07/13 03:02:44;;;;;;;16.33;12.38;;;;;;;22.67;57.95;100850.81;4935216;28;114233;-69
2021/07/13 03:05:24;;;;;;;16.58;12.63;;;;;;;22.68;58.03;100846.28;4939332;28;124126;-69
2021/07/13 03:07:53;;;;;;;17.23;13.50;;;;;;;22.68;57.81;100841.72;4934408;28;124341;-70
2021/07/13 03:10:23;;;;;;;17.45;12.32;;;;;;;22.67;58.04;100848.13;4937717;28;114309;-69
2021/07/13 03:12:52;;;;;;;18.73;13.00;;;;;;;22.67;58.15;100845.41;4940482;28;114440;-70
2021/07/13 03:15:24;;;;;;;17.80;13.38;;;;;;;22.67;58.28;100840.03;4931117;28;123994;-70
2021/07/13 03:17:53;;;;;;;16.35;12.35;;;;;;;22.68;58.09;100836.34;4941176;28;124390;-69
2021/07/13 03:20:22;;;;;;;20.17;13.82;;;;;;;22.68;58.08;100839.03;4940373;28;115090;-69
2021/07/13 03:22:50;;;;;;;19.38;14.15;;;;;;;22.68;58.16;100825.53;4942806;28;115356;-69
2021/07/13 03:25:41;;;;;;;19.98;13.75;;;;;;;22.67;58.17;100829.22;4933757;28;123899;-70
2021/07/13 03:28:10;;;;;;;21.13;14.65;;;;;;;22.68;57.98;100822.00;4944580;28;123751;-69
2021/07/13 03:30:40;;;;;;;23.45;13.80;;;;;;;22.64;58.01;100813.34;4937542;28;114702;-70
2021/07/13 03:33:10;;;;;;;18.88;13.68;;;;;;;22.62;58.09;100815.34;4937833;28;114205;-71
2021/07/13 03:35:38;;;;;;;19.40;13.25;;;;;;;22.60;58.25;100814.59;4931775;28;122975;-70
2021/07/13 03:38:07;;;;;;;21.80;13.98;;;;;;;22.58;58.12;100813.06;4931951;28;124305;-70
2021/07/13 03:40:35;;;;;;;19.33;13.48;;;;;;;22.56;58.18;100821.31;4932630;28;114147;-71
2021/07/13 03:43:02;;;;;;;19.73;13.80;;;;;;;22.54;58.21;100812.50;4931719;28;114029;-70
2021/07/13 03:45:29;;;;;;;23.58;14.90;;;;;;;22.53;58.34;100813.53;4936561;28;124822;-71
2021/07/13 03:47:59;;;;;;;20.05;15.00;;;;;;;22.52;58.32;100819.91;4945275;28;124143;-71
2021/07/13 03:50:34;;;;;;;21.27;14.80;;;;;;;22.51;58.44;100813.66;4939557;28;114568;-70
2021/07/13 03:53:02;;;;;;;18.88;14.00;;;;;;;22.51;58.20;100818.22;4946816;28;113947;-70
2021/07/13 03:55:31;;;;;;;21.40;14.45;;;;;;;22.48;58.44;100824.75;4949011;28;123841;-70
2021/07/13 03:57:58;;;;;;;20.10;14.82;;;;;;;22.48;58.47;100823.91;4943136;28;124628;-70
2021/07/13 04:00:27;;;;;;;21.52;14.65;;;;;;;22.50;58.48;100824.59;4940944;28;114649;-70
2021/07/13 04:02:55;;;;;;;22.65;15.00;;;;;;;22.48;58.60;100824.75;4933552;28;114523;-69
2021/07/13 04:05:23;;;;;;;19.25;14.43;;;;;;;22.49;58.52;100825.59;4938321;28;125021;-70
2021/07/13 04:07:50;;;;;;;20.60;15.35;;;;;;;22.50;58.74;100832.69;4938617;28;123916;-69
2021/07/13 04:10:18;;;;;;;19.15;14.45;;;;;;;22.49;58.84;100831.84;4939497;28;115363;-70
2021/07/13 04:12:45;;;;;;;19.48;14.85;;;;;;;22.48;58.86;100834.69;4934095;28;114946;-70
2021/07/13 04:15:13;;;;;;;19.85;14.38;;;;;;;22.47;59.00;100827.59;4937949;28;124234;-70
2021/07/13 04:17:41;;;;;;;20.48;15.02;;;;;;;22.49;59.00;100841.78;4941622;28;124642;-71
2021/07/13 04:20:10;;;;;;;19.92;14.75;;;;;;;22.48;58.86;100845.50;4947715;28;115116;-70
2021/07/13 04:22:40;;;;;;;21.25;14.65;;;;;;;22.50;58.85;100848.91;4938433;28;114717;-70
2021/07/13 04:25:08;;;;;;;22.42;15.52;;;;;;;22.51;59.03;100842.50;4941122;28;124745;-70
2021/07/13 04:27:37;;;;;;;21.20;15.15;;;;;;;22.52;59.06;100845.03;4937867;28;123928;-70
2021/07/13 04:30:05;;;;;;;25.70;16.42;;;;;;;22.52;59.03;100846.91;4937593;28;113135;-70
2021/07/13 04:32:34;;;;;;;22.27;16.38;;;;;;;22.53;59.13;100854.00;4934028;28;114397;-70
2021/07/13 04:35:02;;;;;;;25.67;16.92;;;;;;;22.53;59.11;100854.00;4933174;28;123856;-70
2021/07/13 04:37:32;;;;;;;23.63;16.80;;;;;;;22.53;59.23;100854.84;4938783;28;124749;-71
2021/07/13 04:39:59;;;;;;;21.98;16.42;;;;;;;22.54;59.24;100853.00;4938072;28;114330;-70
2021/07/13 04:42:27;;;;;;;22.33;16.10;;;;;;;22.55;59.34;100857.41;4936276;28;114827;-70
2021/07/13 04:44:54;;;;;;;24.50;17.38;;;;;;;22.58;59.20;100861.66;4939934;28;124120;-70
2021/07/13 04:47:21;;;;;;;23.08;16.95;;;;;;;22.58;59.43;100854.41;4942216;28;123934;-70
2021/07/13 04:49:48;;;;;;;22.95;16.27;;;;;;;22.59;59.38;100856.13;4936478;28;114625;-70
2021/07/13 04:52:15;;;;;;;25.60;17.27;;;;;;;22.60;59.34;100855.09;4935976;28;113899;-70
2021/07/13 04:54:42;;;;;;;26.05;17.83;;;;;;;22.61;59.48;100855.97;4939067;28;124153;-71
2021/07/13 04:57:09;;;;;;;23.35;15.93;;;;;;;22.60;59.45;100855.09;4940867;28;124727;-70
2021/07/13 04:59:37;;;;;;;21.45;15.95;;;;;;;22.60;59.49;100865.91;4939081;28;114815;-70
2021/07/13 05:02:04;;;;;;;24.63;17.52;;;;;;;22.62;59.47;100858.53;4942679;28;115084;-70
2021/07/13 05:04:32;;;;;;;24.38;17.75;;;;;;;22.62;59.60;100853.13;4932326;28;124730;-70
2021/07/13 05:06:59;;;;;;;26.40;17.63;;;;;;;22.63;59.65;100849.41;4944545;28;123987;-70
2021/07/13 05:09:26;;;;;;;27.75;19.38;;;;;;;22.63;59.60;100849.41;4939804;28;113195;-70
2021/07/13 05:11:54;;;;;;;27.33;19.38;;;;;;;22.64;59.67;100856.53;4942816;28;112967;-71
2021/07/13 05:14:21;;;;;;;26.77;18.08;;;;;;;22.66;59.73;100859.94;4934425;28;124107;-70
2021/07/13 05:16:48;;;;;;;28.02;19.73;;;;;;;22.66;59.75;100859.94;4938395;28;123958;-71
2021/07/13 05:19:17;;;;;;;24.98;17.92;;;;;;;22.67;59.60;100867.03;4939280;28;113657;-71
2021/07/13 05:21:49;;;;;;;26.75;19.42;;;;;;;22.69;59.76;100862.31;4934032;28;113272;-71
2021/07/13 05:24:16;;;;;;;26.98;19.02;;;;;;;22.68;59.82;100867.91;4933996;28;123877;-70
2021/07/13 05:26:44;;;;;;;25.75;19.67;;;;;;;22.68;59.94;100866.03;4939884;28;124314;-71
2021/07/13 05:29:11;;;;;;;27.83;20.35;;;;;;;22.69;59.99;100870.41;4938353;28;114828;-70
2021/07/13 05:31:38;;;;;;;28.95;21.58;;;;;;;22.71;59.97;100879.22;4919069;28;113152;-70
2021/07/13 05:34:06;;;;;;;31.23;20.50;;;;;;;22.73;59.90;100876.38;4932137;28;124090;-70
2021/07/13 05:36:33;;;;;;;30.40;22.15;;;;;;;22.73;60.13;100866.44;4933981;28;124636;-70
2021/07/13 05:39:02;;;;;;;30.33;21.20;;;;;;;22.74;59.99;100873.53;4945375;28;114976;-71
2021/07/13 05:41:29;;;;;;;28.50;21.02;;;;;;;22.76;59.97;100869.84;4924125;28;113344;-70
2021/07/13 05:43:58;;;;;;;30.25;21.15;;;;;;;22.74;60.22;100873.53;4931725;28;124511;-70
2021/07/13 05:46:25;;;;;;;30.75;21.88;;;;;;;22.75;60.14;100868.97;4937992;28;123948;-70
2021/07/13 05:48:53;;;;;;;32.47;22.45;;;;;;;22.76;60.11;100864.44;4946002;28;115462;-70
2021/07/13 05:51:20;;;;;;;32.13;23.02;;;;;;;22.77;60.21;100871.53;4944909;28;115423;-70
2021/07/13 05:53:48;;;;;;;32.55;23.67;;;;;;;22.77;60.27;100866.97;4941872;28;123930;-70
2021/07/13 05:56:15;;;;;;;34.33;25.00;;;;;;;22.79;60.29;100874.94;4943975;28;124636;-70
2021/07/13 05:58:42;;;;;;;35.50;25.40;;;;;;;22.81;60.35;100883.75;4940770;28;114359;-70
2021/07/13 06:01:09;;;;;;;35.35;25.58;;;;;;;22.81;60.32;100878.34;4939245;28;113948;-71
2021/07/13 06:03:36;;;;;;;34.53;24.98;;;;;;;22.80;60.33;100879.34;4938998;28;124184;-71
2021/07/13 06:06:04;;;;;;;35.17;25.60;;;;;;;22.81;60.37;100872.94;4939089;28;124083;-70
2021/07/13 06:08:31;;;;;;;35.53;25.55;;;;;;;22.82;60.51;100880.91;4945584;28;114387;-71
2021/07/13 06:10:58;;;;;;;35.30;24.67;;;;;;;22.82;60.54;100874.66;4939976;28;112881;-71
2021/07/13 06:13:25;;;;;;;34.92;25.48;;;;;;;22.84;60.59;100878.06;4950501;28;124380;-71
2021/07/13 06:15:53;;;;;;;35.00;25.67;;;;;;;22.85;60.56;100882.44;4941155;28;123981;-71
2021/07/13 06:18:21;;;;;;;34.47;24.42;;;;;;;22.88;60.44;100890.25;4941300;28;113212;-71
2021/07/13 06:20:48;;;;;;;33.55;24.77;;;;;;;22.90;60.52;100888.25;4947225;28;114204;-70
2021/07/13 06:23:16;;;;;;;32.10;24.63;;;;;;;22.92;60.37;100880.84;4948630;28;123738;-71
2021/07/13 06:25:43;;;;;;;33.30;25.02;;;;;;;22.93;60.58;100887.97;4939730;28;124261;-71
2021/07/13 06:28:11;;;;;;;34.50;25.52;;;;;;;22.93;60.62;100882.56;4937208;28;114084;-71
2021/07/13 06:30:39;;;;;;;33.08;25.33;;;;;;;22.96;60.66;100892.22;4921942;28;113414;-70
2021/07/13 06:33:07;;;;;;;34.20;25.60;;;;;;;22.98;60.78;100880.28;4934732;28;124899;-70
2021/07/13 06:35:34;;;;;;;33.97;25.05;;;;;;;23.02;60.74;100886.19;4937649;28;124665;-70
2021/07/13 06:38:03;;;;;;;37.80;26.40;;;;;;;23.04;60.76;100890.50;4930590;28;115293;-71
2021/07/13 06:40:30;;;;;;;33.58;24.65;;;;;;;23.08;60.76;100897.31;4923458;28;115042;-71
2021/07/13 06:42:57;;;;;;;33.75;24.80;;;;;;;23.08;60.82;100905.41;4920802;28;123889;-70
2021/07/13 06:45:24;;;;;;;35.45;25.42;;;;;;;23.11;60.80;100907.84;4924316;28;123719;-70
2021/07/13 06:47:54;;;;;;;36.05;26.48;;;;;;;23.12;60.87;100901.41;4929799;28;114356;-70
2021/07/13 06:50:23;;;;;;;35.95;26.27;;;;;;;23.15;60.86;100907.50;4926739;28;113808;-70
2021/07/13 06:52:52;;;;;;;36.72;26.17;;;;;;;23.18;60.81;100909.94;4932603;28;123727;-69
2021/07/13 06:55:20;;;;;;;35.85;26.73;;;;;;;23.21;60.79;100906.94;4916022;28;123641;-68
2021/07/13 06:57:47;;;;;;;39.22;26.45;;;;;;;23.22;60.80;100908.63;4924823;28;114218;-69
2021/07/13 07:00:15;;;;;;;36.70;26.90;;;;;;;23.24;60.76;100914.72;4918338;28;114205;-68
2021/07/13 07:02:42;;;;;;;39.85;27.83;;;;;;;23.26;60.96;100910.00;4934820;28;123938;-68
2021/07/13 07:05:10;;;;;;;36.53;26.35;;;;;;;23.26;60.84;100920.81;4923798;28;123907;-69
2021/07/13 07:07:47;;;;;;;34.92;25.83;;;;;;;23.28;60.85;100916.13;4927509;28;114461;-69
2021/07/13 07:10:17;;;;;;;39.55;27.13;;;;;;;23.29;60.88;100917.84;4921328;28;113261;-70
2021/07/13 07:12:45;;;;;;;35.42;26.10;;;;;;;23.30;60.83;100916.81;4919828;28;124869;-69
2021/07/13 07:15:13;;;;;;;37.15;26.85;;;;;;;23.31;60.97;100923.94;4921524;28;123895;-69
2021/07/13 07:17:49;;;;;;;40.25;27.75;;;;;;;23.32;61.01;100920.25;4932049;28;114869;-68
2021/07/13 07:20:26;;;;;;;36.03;26.15;;;;;;;23.32;60.94;100925.66;4926419;28;114073;-68
2021/07/13 07:22:57;;;;;;;36.33;26.50;;;;;;;23.34;60.95;100918.25;4925398;28;124033;-69
2021/07/13 07:25:27;;;;;;;37.45;26.80;;;;;;;23.36;61.12;100920.78;4924856;28;124296;-69
2021/07/13 07:27:57;;;;;;;37.13;27.63;;;;;;;23.37;61.10;100922.47;4922668;28;115893;-69
2021/07/13 07:30:25;;;;;;;36.70;26.55;;;;;;;23.36;61.02;100927.06;4926374;28;114768;-69
2021/07/13 07:32:53;;;;;;;36.85;27.17;;;;;;;23.36;61.01;100927.06;4918670;28;124217;-69
2021/07/13 07:35:22;;;;;;;37.55;27.05;;;;;;;23.36;61.38;100921.66;4908078;28;122695;-69
2021/07/13 07:37:50;;;;;;;38.53;26.30;;;;;;;23.35;61.28;100925.34;4925386;28;113771;-70
2021/07/13 07:40:20;;;;;;;36.05;24.55;;;;;;;23.36;61.33;100918.94;4922643;28;114092;-69
2021/07/13 07:42:49;;;;;;;35.40;25.05;;;;;;;23.35;61.39;100919.94;4922737;28;124570;-70
2021/07/13 07:45:18;;;;;;;35.25;24.73;;;;;;;23.35;61.53;100919.94;4922208;28;124021;-69
2021/07/13 07:47:46;;;;;;;39.13;25.95;;;;;;;23.36;61.49;100921.66;4918233;28;114606;-69
2021/07/13 07:50:15;;;;;;;35.08;25.05;;;;;;;23.37;61.56;100917.91;4928969;28;114010;-69
2021/07/13 07:52:42;;;;;;;37.28;25.10;;;;;;;23.39;61.57;100921.31;4924544;28;124857;-69
2021/07/13 07:55:11;;;;;;;38.72;25.50;;;;;;;23.43;61.59;100916.47;4927107;28;124241;-69
2021/07/13 07:57:38;;;;;;;36.42;26.35;;;;;;;23.45;61.55;100926.16;4934005;28;114125;-70
2021/07/13 08:00:07;;;;;;;39.50;25.42;;;;;;;23.47;61.57;100926.84;4927555;28;113153;-67
2021/07/13 08:02:39;;;;;;;37.92;26.08;;;;;;;23.48;61.58;100917.72;4933347;28;124899;-67
2021/07/13 08:05:07;;;;;;;36.03;24.80;;;;;;;23.50;61.54;100914.88;4929169;28;123786;-67
2021/07/13 08:07:35;;;;;;;38.38;25.38;;;;;;;23.50;61.29;100918.41;4922736;28;115191;-67
2021/07/13 08:10:05;;;;;;;36.75;25.20;;;;;;;23.51;61.60;100920.13;4931793;28;114432;-67
2021/07/13 08:12:32;;;;;;;35.78;24.20;;;;;;;23.52;61.58;100920.97;4926298;28;125154;-67
2021/07/13 08:14:59;;;;;;;33.90;23.35;;;;;;;23.56;61.50;100918.81;4925450;28;123717;-67
2021/07/13 08:17:27;;;;;;;33.42;23.30;;;;;;;23.58;61.43;100920.34;4926478;28;115135;-67
2021/07/13 08:19:54;;;;;;;32.67;23.05;;;;;;;23.61;61.45;100919.22;4918350;28;115329;-67
2021/07/13 08:22:21;;;;;;;32.97;23.35;;;;;;;23.63;61.60;100917.22;4925633;28;123979;-67
2021/07/13 08:24:48;;;;;;;35.03;24.00;;;;;;;23.64;61.64;100908.06;4921345;28;124835;-67
2021/07/13 08:27:15;;;;;;;34.20;24.02;;;;;;;23.66;61.71;100895.28;4930426;28;114973;-67
2021/07/13 08:29:43;;;;;;;38.50;26.30;;;;;;;23.66;61.49;100901.53;4926797;28;114348;-67
2021/07/13 08:32:10;;;;;;;32.85;23.17;;;;;;;23.64;61.84;100891.84;4918699;28;124294;-67
2021/07/13 08:34:37;;;;;;;29.52;21.33;;;;;;;23.63;61.87;100898.28;4917940;28;124018;-67
2021/07/13 08:37:05;;;;;;;32.40;22.40;;;;;;;23.65;61.82;100898.97;4921333;28;114549;-66
2021/07/13 08:39:32;;;;;;;32.63;22.05;;;;;;;23.67;61.85;100907.78;4924946;28;114351;-67
2021/07/13 08:42:02;;;;;;;31.52;22.60;;;;;;;23.69;62.14;100912.03;4919060;28;123884;-67
2021/07/13 08:44:34;;;;;;;35.35;24.27;;;;;;;23.73;62.51;100904.47;4922208;28;124771;-67
2021/07/13 08:47:01;;;;;;;38.05;25.20;;;;;;;23.78;62.16;100904.84;4926734;28;114758;-67
2021/07/13 08:49:28;;;;;;;40.05;26.73;;;;;;;23.80;62.26;100902.88;4931407;28;113778;-67
2021/07/13 08:51:55;;;;;;;41.35;28.00;;;;;;;23.83;62.17;100897.16;4935358;28;123636;-67
2021/07/13 08:54:23;;;;;;;43.53;28.77;;;;;;;23.84;62.02;100901.56;4920082;28;123914;-67
2021/07/13 08:56:50;;;;;;;43.80;28.95;;;;;;;23.87;62.25;100903.13;4926831;28;114892;-67
2021/07/13 08:59:19;;;;;;;43.90;28.63;;;;;;;23.88;62.12;100905.69;4926845;28;113921;-67
2021/07/13 09:01:46;;;;;;;41.85;27.98;;;;;;;23.89;62.24;100901.13;4922719;28;124475;-67
2021/07/13 09:04:13;;;;;;;41.85;27.75;;;;;;;23.89;62.42;100896.53;4923381;28;123914;-68
2021/07/13 09:06:55;;;;;;;41.05;26.52;;;;;;;23.88;62.25;100900.28;4923177;28;115102;-67
2021/07/13 09:09:28;;;;;;;39.13;26.45;;;;;;;23.89;62.47;100901.94;4926504;28;115435;-67
2021/07/13 09:12:16;;;;;;;39.40;26.65;;;;;;;23.90;62.29;100909.06;4925968;28;124599;-67
2021/07/13 09:14:49;;;;;;;37.80;25.73;;;;;;;23.94;62.56;100915.03;4938172;28;123818;-67
2021/07/13 09:17:35;;;;;;;36.70;24.52;;;;;;;23.98;62.60;100910.13;4931288;28;114464;-67
2021/07/13 09:20:28;;;;;;;33.60;23.67;;;;;;;24.02;62.61;100908.84;4926602;28;113025;-67
2021/07/13 09:22:59;;;;;;;33.38;22.88;;;;;;;24.05;62.50;100911.22;4923752;28;123270;-67
2021/07/13 09:25:30;;;;;;;29.55;21.20;;;;;;;24.08;62.37;100910.91;4928349;28;124828;-67
2021/07/13 09:28:22;;;;;;;27.85;19.48;;;;;;;24.11;62.25;100899.78;4926877;28;114116;-67
2021/07/13 09:30:52;;;;;;;24.75;18.13;;;;;;;24.14;62.13;100915.69;4933334;28;114345;-67
2021/07/13 09:33:28;;;;;;;25.08;17.15;;;;;;;24.15;62.07;100912.00;4928200;28;124431;-67
2021/07/13 09:36:04;;;;;;;23.08;16.23;;;;;;;24.17;61.78;100912.69;4928067;28;123960;-67
2021/07/13 09:38:36;;;;;;;24.05;17.38;;;;;;;24.20;61.83;100909.66;4929524;28;114918;-67
2021/07/13 09:41:15;;;;;;;23.17;16.98;;;;;;;24.25;61.84;100912.75;4925584;28;113337;-67
2021/07/13 09:43:49;;;;;;;24.58;16.33;;;;;;;24.31;61.62;100915.84;4926153;28;124103;-67
2021/07/13 09:46:32;;;;;;;26.00;17.40;;;;;;;24.34;61.45;100910.13;4927271;28;124227;-67
2021/07/13 09:49:08;;;;;;;23.40;15.98;;;;;;;24.37;61.51;100909.78;4923328;28;113337;-67
2021/07/13 09:51:36;;;;;;;;;;;;;;;24.38;61.21;100911.50;4929840;28;113429;-67
2021/07/13 09:54:32;;;;;;;21.38;15.25;;;;;;;24.41;61.14;100911.16;4931892;28;125189;-67
2021/07/13 09:57:01;;;;;;;19.23;14.05;;;;;;;24.42;60.92;100910.19;4926852;28;124211;-67
2021/07/13 09:59:28;;;;;;;19.38;13.40;;;;;;;24.42;60.82;100921.00;4922002;28;114434;-67
2021/07/13 10:01:56;;;;;;;19.25;13.13;;;;;;;24.39;60.96;100919.47;4923484;28;115143;-67
2021/07/13 10:04:24;;;;;;;19.63;14.13;;;;;;;24.40;60.83;100921.16;4927116;28;124201;-67
2021/07/13 10:06:52;;;;;;;18.45;13.20;;;;;;;24.43;60.85;100925.41;4924564;28;124126;-67
2021/07/13 10:09:21;;;;;;;20.15;13.50;;;;;;;24.44;60.87;100927.13;4925270;28;115749;-66
2021/07/13 10:11:49;;;;;;;19.58;12.98;;;;;;;24.43;60.90;100930.81;4927523;28;114059;-67
2021/07/13 10:14:17;;;;;;;19.48;13.00;;;;;;;24.44;60.93;100927.13;4928519;28;124781;-67
2021/07/13 10:16:45;;;;;;;19.88;13.77;;;;;;;24.46;60.85;100931.34;4945748;28;123596;-67
2021/07/13 10:19:13;;;;;;;17.88;13.18;;;;;;;24.47;60.94;100933.06;4923091;28;113939;-67
2021/07/13 10:21:44;;;;;;;20.92;14.82;;;;;;;24.48;61.01;100933.91;4921368;28;114634;-67
2021/07/13 10:24:11;;;;;;;20.80;13.93;;;;;;;24.48;61.11;100939.31;4928174;28;124683;-67
2021/07/13 10:26:49;;;;;;;21.15;14.77;;;;;;;24.48;61.14;100933.91;4926771;28;123847;-67
2021/07/13 10:29:32;;;;;;;22.52;15.25;;;;;;;24.48;60.90;100929.34;4924231;28;114711;-67
2021/07/13 10:32:03;;;;;;;20.90;15.43;;;;;;;24.51;61.03;100930.06;4933151;23;114189;-62
2021/07/13 10:34:53;;;;;;;25.30;16.70;;;;;;;24.50;61.18;100929.19;4924778;28;124139;-62
2021/07/13 10:37:25;;;;;;;23.40;16.48;;;;;;;24.51;61.23;100917.34;4916077;28;122887;-62
2021/07/13 10:40:01;;;;;;;26.42;16.83;;;;;;;24.53;61.46;100926.19;4927774;28;114214;-62
2021/07/13 10:42:48;;;;;;;26.65;17.85;;;;;;;24.54;61.64;100929.75;4918460;28;114551;-62
2021/07/13 10:45:28;;;;;;;25.80;17.48;;;;;;;24.56;61.62;100925.88;4912863;28;124814;-62
2021/07/13 10:48:10;;;;;;;27.38;16.90;;;;;;;24.57;61.83;100922.16;4925748;28;123082;-62
2021/07/13 10:50:51;;;;;;;25.77;16.38;;;;;;;24.58;61.86;100929.28;4920042;28;114456;-62
2021/07/13 10:53:22;;;;;;;25.48;16.75;;;;;;;24.61;61.93;100928.94;4930275;28;114831;-62
2021/07/13 10:56:10;;;;;;;26.98;18.40;;;;;;;24.63;61.89;100921.50;4916771;28;123427;-62
2021/07/13 10:58:40;;;;;;;25.55;17.67;;;;;;;24.64;61.62;100925.94;4923971;28;123785;-62
2021/07/13 11:01:14;;;;;;;25.75;17.50;;;;;;;24.64;61.76;100923.22;4924700;28;114580;-62
2021/07/13 11:03:42;;;;;;;28.65;19.17;;;;;;;24.66;61.90;100920.38;4919132;28;114125;-62
2021/07/13 11:06:11;;;;;;;30.88;19.35;;;;;;;24.66;62.01;100932.03;4919219;28;122972;-62
2021/07/13 11:08:41;;;;;;;28.55;19.67;;;;;;;24.71;62.03;100933.41;4912095;28;124827;-62
2021/07/13 11:11:30;;;;;;;30.00;19.38;;;;;;;24.74;62.09;100927.69;4917684;28;114438;-62
2021/07/13 11:14:03;;;;;;;30.67;20.25;;;;;;;24.77;61.81;100921.94;4915105;28;114079;-62
2021/07/13 11:16:39;;;;;;;29.73;19.80;;;;;;;24.80;62.05;100927.03;4917491;28;124392;-62